createdAt,value
2018-09-09T00:01:55.761Z,15.70
2018-09-09T00:04:24.855Z,15.70
2018-09-09T00:06:54.071Z,15.60
2018-09-09T00:09:22.396Z,15.60
2018-09-09T00:11:50.736Z,15.60
2018-09-09T00:14:19.094Z,15.60
2018-09-09T00:16:47.428Z,15.60
2018-09-09T00:19:15.887Z,15.60
2018-09-09T00:21:44.220Z,15.60
2018-09-09T00:24:13.454Z,15.60
2018-09-09T00:26:41.772Z,15.60
2018-09-09T00:29:10.313Z,15.60
2018-09-09T00:31:38.862Z,15.60
2018-09-09T00:34:07.986Z,15.60
2018-09-09T00:36:36.386Z,15.50
2018-09-09T00:39:04.728Z,15.60
2018-09-09T00:41:33.087Z,15.60
2018-09-09T00:44:01.407Z,15.60
2018-09-09T00:46:29.768Z,15.60
2018-09-09T00:48:58.855Z,15.70
2018-09-09T00:54:20.928Z,15.70
2018-09-09T00:56:49.278Z,15.70
2018-09-09T00:59:18.374Z,15.70
2018-09-09T01:01:47.496Z,15.70
2018-09-09T01:04:15.876Z,15.70
2018-09-09T01:06:44.474Z,15.70
2018-09-09T01:09:12.809Z,15.70
2018-09-09T01:11:41.918Z,15.70
2018-09-09T01:14:11.025Z,15.60
2018-09-09T01:16:39.422Z,15.60
2018-09-09T01:19:07.763Z,15.60
2018-09-09T01:21:36.874Z,15.50
2018-09-09T01:24:06.002Z,15.50
2018-09-09T01:26:34.331Z,15.50
2018-09-09T01:29:03.438Z,15.50
2018-09-09T01:31:32.557Z,15.40
2018-09-09T01:34:00.910Z,15.40
2018-09-09T01:36:30.012Z,15.40
2018-09-09T01:38:59.240Z,15.40
2018-09-09T01:41:27.570Z,15.40
2018-09-09T01:43:55.893Z,15.40
2018-09-09T01:46:24.260Z,15.40
2018-09-09T01:48:52.657Z,15.50
2018-09-09T01:51:21.012Z,15.40
2018-09-09T01:53:50.190Z,15.50
2018-09-09T01:56:18.514Z,15.50
2018-09-09T01:58:46.901Z,15.50
2018-09-09T02:01:15.243Z,15.50
2018-09-09T02:03:44.337Z,15.40
2018-09-09T02:06:13.453Z,15.50
2018-09-09T02:08:41.817Z,15.40
2018-09-09T02:11:11.145Z,15.40
2018-09-09T02:13:39.482Z,15.40
2018-09-09T02:16:08.613Z,15.40
2018-09-09T02:18:36.933Z,15.40
2018-09-09T02:21:05.469Z,15.40
2018-09-09T02:23:33.797Z,15.40
2018-09-09T02:26:02.225Z,15.40
2018-09-09T02:28:30.576Z,15.40
2018-09-09T02:30:59.743Z,15.50
2018-09-09T02:33:28.082Z,15.40
2018-09-09T02:35:56.407Z,15.40
2018-09-09T02:38:24.736Z,15.40
2018-09-09T02:40:53.069Z,15.50
2018-09-09T02:43:21.412Z,15.40
2018-09-09T02:45:49.834Z,15.40
2018-09-09T02:48:18.526Z,15.40
2018-09-09T02:50:46.936Z,15.40
2018-09-09T02:53:15.272Z,15.40
2018-09-09T02:55:43.700Z,15.40
2018-09-09T02:58:12.129Z,15.40
2018-09-09T03:00:40.458Z,15.40
2018-09-09T03:03:08.805Z,15.40
2018-09-09T03:05:37.136Z,15.40
2018-09-09T03:08:05.465Z,15.40
2018-09-09T03:10:34.025Z,15.40
2018-09-09T03:13:02.469Z,15.40
2018-09-09T03:15:30.841Z,15.40
2018-09-09T03:17:59.539Z,15.40
2018-09-09T03:20:28.626Z,15.30
2018-09-09T03:22:56.963Z,15.30
2018-09-09T03:25:25.392Z,15.30
2018-09-09T03:27:53.730Z,15.20
2018-09-09T03:30:22.064Z,15.20
2018-09-09T03:32:50.403Z,15.20
2018-09-09T03:35:18.856Z,15.20
2018-09-09T03:37:47.206Z,15.20
2018-09-09T03:40:15.548Z,15.20
2018-09-09T03:42:43.889Z,15.20
2018-09-09T03:45:12.214Z,15.20
2018-09-09T03:47:40.630Z,15.20
2018-09-09T03:50:08.958Z,15.20
2018-09-09T03:52:37.304Z,15.20
2018-09-09T03:55:05.816Z,15.20
2018-09-09T03:57:35.935Z,15.10
2018-09-09T04:00:04.351Z,15.10
2018-09-09T04:02:32.674Z,15.10
2018-09-09T04:05:01.029Z,15.00
2018-09-09T04:07:29.341Z,15.00
2018-09-09T04:09:57.795Z,15.00
2018-09-09T04:12:26.072Z,14.90
2018-09-09T04:14:54.406Z,14.90
2018-09-09T04:17:22.873Z,14.80
2018-09-09T04:19:51.371Z,14.80
2018-09-09T04:22:19.698Z,14.80
2018-09-09T04:24:48.121Z,14.70
2018-09-09T04:27:16.461Z,14.70
2018-09-09T04:29:44.803Z,14.60
2018-09-09T04:32:13.122Z,14.60
2018-09-09T04:34:41.484Z,14.50
2018-09-09T04:37:10.063Z,14.50
2018-09-09T04:39:38.356Z,14.40
2018-09-09T04:42:06.673Z,14.40
2018-09-09T04:44:35.050Z,14.40
2018-09-09T04:47:03.400Z,14.30
2018-09-09T04:49:31.741Z,14.30
2018-09-09T04:52:00.078Z,14.30
2018-09-09T04:54:29.197Z,14.20
2018-09-09T04:56:57.636Z,14.20
2018-09-09T04:59:26.142Z,14.20
2018-09-09T05:01:55.225Z,14.20
2018-09-09T05:04:24.306Z,14.20
2018-09-09T05:06:52.654Z,14.10
2018-09-09T05:09:21.276Z,14.10
2018-09-09T05:11:49.685Z,14.10
2018-09-09T05:14:18.064Z,14.10
2018-09-09T05:16:46.429Z,14.10
2018-09-09T05:19:14.933Z,14.10
2018-09-09T05:21:43.412Z,14.10
2018-09-09T05:24:11.734Z,14.10
2018-09-09T05:26:40.056Z,14.10
2018-09-09T05:29:08.414Z,14.20
2018-09-09T05:31:37.515Z,14.30
2018-09-09T05:34:06.615Z,14.30
2018-09-09T05:36:34.992Z,14.30
2018-09-09T05:39:03.350Z,14.40
2018-09-09T05:41:31.672Z,14.40
2018-09-09T05:44:00.172Z,14.50
2018-09-09T05:46:28.496Z,14.50
2018-09-09T05:48:56.917Z,14.50
2018-09-09T05:51:25.296Z,14.60
2018-09-09T05:53:53.737Z,14.60
2018-09-09T05:56:22.126Z,14.60
2018-09-09T05:58:50.563Z,14.60
2018-09-09T06:01:18.894Z,14.70
2018-09-09T06:03:47.987Z,14.70
2018-09-09T06:06:16.345Z,14.70
2018-09-09T06:08:44.676Z,14.80
2018-09-09T06:11:13.162Z,14.80
2018-09-09T06:13:41.524Z,14.80
2018-09-09T06:16:09.909Z,14.80
2018-09-09T06:18:38.307Z,14.80
2018-09-09T06:21:06.634Z,14.80
2018-09-09T06:23:35.756Z,15.00
2018-09-09T06:26:04.136Z,14.90
2018-09-09T06:28:33.268Z,15.20
2018-09-09T06:31:01.670Z,15.10
2018-09-09T06:33:30.016Z,15.30
2018-09-09T06:35:58.407Z,15.40
2018-09-09T06:38:26.757Z,15.60
2018-09-09T06:40:55.079Z,15.70
2018-09-09T06:43:23.448Z,15.90
2018-09-09T06:45:51.803Z,16.10
2018-09-09T06:48:20.166Z,16.30
2018-09-09T06:50:49.346Z,16.70
2018-09-09T06:53:18.568Z,16.90
2018-09-09T06:55:46.942Z,16.90
2018-09-09T06:58:15.375Z,17.00
2018-09-09T07:00:44.398Z,17.10
2018-09-09T07:03:13.528Z,17.10
2018-09-09T07:05:42.002Z,17.10
2018-09-09T07:08:11.230Z,17.00
2018-09-09T07:10:40.112Z,17.00
2018-09-09T07:13:08.466Z,17.00
2018-09-09T07:15:37.238Z,17.00
2018-09-09T07:18:05.678Z,17.00
2018-09-09T07:20:34.096Z,17.00
2018-09-09T07:23:02.770Z,17.10
2018-09-09T07:25:31.176Z,17.10
2018-09-09T07:27:59.757Z,17.20
2018-09-09T07:30:28.334Z,17.20
2018-09-09T07:32:56.844Z,17.20
2018-09-09T07:35:26.038Z,17.20
2018-09-09T07:37:54.575Z,17.20
2018-09-09T07:40:23.262Z,17.20
2018-09-09T07:42:51.612Z,17.30
2018-09-09T07:45:20.079Z,17.30
2018-09-09T07:47:48.446Z,17.50
2018-09-09T07:50:16.773Z,17.60
2018-09-09T07:52:45.583Z,17.80
2018-09-09T07:55:13.991Z,18.00
2018-09-09T07:57:42.480Z,18.30
2018-09-09T08:00:10.799Z,18.50
2018-09-09T08:02:39.279Z,18.70
2018-09-09T08:05:08.512Z,19.10
2018-09-09T08:07:37.635Z,19.30
2018-09-09T08:10:05.946Z,19.30
2018-09-09T08:12:34.265Z,19.40
2018-09-09T08:15:03.391Z,19.30
2018-09-09T08:17:31.717Z,19.30
2018-09-09T08:20:00.152Z,19.40
2018-09-09T08:22:28.546Z,19.50
2018-09-09T08:24:57.021Z,19.70
2018-09-09T08:27:25.392Z,19.70
2018-09-09T08:29:53.781Z,19.80
2018-09-09T08:32:22.132Z,20.00
2018-09-09T08:34:50.587Z,20.00
2018-09-09T08:37:18.833Z,20.10
2018-09-09T08:39:47.183Z,20.20
2018-09-09T08:42:15.556Z,20.40
2018-09-09T08:44:43.896Z,20.60
2018-09-09T08:47:12.226Z,20.70
2018-09-09T08:49:40.589Z,20.70
2018-09-09T08:52:09.041Z,20.80
2018-09-09T08:54:37.312Z,20.80
2018-09-09T08:57:05.652Z,20.70
2018-09-09T08:59:34.489Z,20.40
2018-09-09T09:02:02.825Z,20.30
2018-09-09T09:04:31.262Z,20.20
2018-09-09T09:06:59.591Z,20.20
2018-09-09T09:09:27.997Z,20.30
2018-09-09T09:11:56.515Z,20.50
2018-09-09T09:14:24.877Z,20.70
2018-09-09T09:16:53.287Z,21.10
2018-09-09T09:19:21.656Z,21.20
2018-09-09T09:21:50.049Z,21.50
2018-09-09T09:24:18.436Z,21.80
2018-09-09T09:26:46.807Z,22.00
2018-09-09T09:29:15.157Z,22.30
2018-09-09T09:31:44.265Z,22.80
2018-09-09T09:34:12.617Z,22.80
2018-09-09T09:36:40.987Z,23.10
2018-09-09T09:39:09.431Z,23.10
2018-09-09T09:41:37.797Z,23.70
2018-09-09T09:44:06.123Z,23.90
2018-09-09T09:46:34.587Z,24.00
2018-09-09T09:49:02.957Z,23.90
2018-09-09T09:51:31.273Z,23.60
2018-09-09T09:54:00.383Z,23.00
2018-09-09T09:56:29.807Z,23.20
2018-09-09T09:58:59.647Z,23.60
2018-09-09T10:01:28.128Z,23.60
2018-09-09T10:03:56.477Z,23.80
2018-09-09T10:06:24.961Z,24.10
2018-09-09T10:08:53.396Z,25.10
2018-09-09T10:11:21.725Z,25.10
2018-09-09T10:13:50.079Z,26.10
2018-09-09T10:16:19.168Z,26.80
2018-09-09T10:18:48.309Z,27.10
2018-09-09T10:21:16.687Z,27.00
2018-09-09T10:23:45.125Z,26.90
2018-09-09T10:26:13.468Z,26.70
2018-09-09T10:28:41.859Z,26.70
2018-09-09T10:31:10.210Z,27.00
2018-09-09T10:33:38.631Z,26.90
2018-09-09T10:36:06.967Z,27.00
2018-09-09T10:38:35.339Z,27.00
2018-09-09T10:41:03.671Z,27.30
2018-09-09T10:43:32.025Z,27.50
2018-09-09T10:46:00.396Z,27.40
2018-09-09T10:48:28.763Z,27.50
2018-09-09T10:50:57.471Z,27.90
2018-09-09T10:53:25.801Z,28.30
2018-09-09T10:55:54.219Z,28.50
2018-09-09T10:58:22.590Z,28.60
2018-09-09T11:00:51.242Z,28.30
2018-09-09T11:03:20.352Z,28.80
2018-09-09T11:05:49.431Z,28.80
2018-09-09T11:08:17.867Z,28.70
2018-09-09T11:10:46.308Z,28.20
2018-09-09T11:13:14.730Z,27.30
2018-09-09T11:15:43.065Z,27.50
2018-09-09T11:18:11.499Z,28.00
2018-09-09T11:20:40.040Z,28.60
2018-09-09T11:23:08.390Z,29.60
2018-09-09T11:25:36.789Z,30.20
2018-09-09T11:28:05.110Z,30.20
2018-09-09T11:30:33.556Z,30.30
2018-09-09T11:33:02.014Z,30.60
2018-09-09T11:35:30.357Z,30.80
2018-09-09T11:37:59.194Z,30.90
2018-09-09T11:40:27.674Z,31.10
2018-09-09T11:42:56.045Z,30.90
2018-09-09T11:45:24.669Z,30.90
2018-09-09T11:47:53.013Z,31.00
2018-09-09T11:50:22.140Z,31.10
2018-09-09T11:52:50.506Z,31.10
2018-09-09T11:55:18.862Z,30.50
2018-09-09T11:57:47.953Z,29.70
2018-09-09T12:00:17.070Z,29.70
2018-09-09T12:02:46.217Z,30.10
2018-09-09T12:05:14.632Z,30.10
2018-09-09T12:07:43.873Z,30.70
2018-09-09T12:10:12.223Z,30.70
2018-09-09T12:12:40.588Z,31.10
2018-09-09T12:15:09.745Z,31.00
2018-09-09T12:17:38.078Z,31.00
2018-09-09T12:20:06.479Z,31.10
2018-09-09T12:22:34.842Z,31.00
2018-09-09T12:25:03.245Z,31.30
2018-09-09T12:27:31.651Z,31.50
2018-09-09T12:29:59.979Z,31.50
2018-09-09T12:32:28.350Z,31.30
2018-09-09T12:34:56.796Z,30.50
2018-09-09T12:37:25.153Z,30.60
2018-09-09T12:39:53.460Z,30.90
2018-09-09T12:42:21.987Z,30.70
2018-09-09T12:47:49.384Z,30.80
2018-09-09T12:50:17.740Z,30.80
2018-09-09T12:52:46.238Z,30.40
2018-09-09T12:55:14.562Z,30.40
2018-09-09T12:57:42.984Z,30.90
2018-09-09T13:00:11.356Z,31.00
2018-09-09T13:02:39.734Z,31.30
2018-09-09T13:05:08.230Z,31.50
2018-09-09T13:07:36.711Z,32.10
2018-09-09T13:10:05.215Z,32.20
2018-09-09T13:12:33.533Z,32.00
2018-09-09T13:15:02.697Z,32.30
2018-09-09T13:17:31.070Z,32.30
2018-09-09T13:19:59.541Z,32.90
2018-09-09T13:22:28.026Z,33.70
2018-09-09T13:24:56.355Z,33.90
2018-09-09T13:27:25.474Z,33.40
2018-09-09T13:29:53.822Z,33.40
2018-09-09T13:32:23.130Z,32.90
2018-09-09T13:34:51.516Z,32.90
2018-09-09T13:37:20.663Z,31.10
2018-09-09T13:39:49.002Z,31.10
2018-09-09T13:42:17.363Z,31.20
2018-09-09T13:44:46.489Z,31.10
2018-09-09T13:47:14.856Z,31.10
2018-09-09T13:49:43.714Z,31.30
2018-09-09T13:52:12.059Z,31.80
2018-09-09T13:54:40.408Z,31.40
2018-09-09T13:57:08.796Z,31.10
2018-09-09T13:59:37.130Z,30.50
2018-09-09T14:02:05.545Z,30.10
2018-09-09T14:04:33.927Z,29.70
2018-09-09T14:07:02.269Z,29.30
2018-09-09T14:09:30.784Z,28.60
2018-09-09T14:11:59.106Z,27.90
2018-09-09T14:14:27.539Z,27.10
2018-09-09T14:16:56.568Z,26.50
2018-09-09T14:19:24.950Z,25.90
2018-09-09T14:21:53.296Z,25.50
2018-09-09T14:24:22.448Z,24.90
2018-09-09T14:26:50.940Z,24.90
2018-09-09T14:29:19.352Z,24.60
2018-09-09T14:31:47.870Z,24.40
2018-09-09T14:34:16.333Z,24.30
2018-09-09T14:36:44.763Z,24.20
2018-09-09T14:39:13.230Z,24.20
2018-09-09T14:41:41.740Z,24.20
2018-09-09T14:44:10.207Z,24.10
2018-09-09T14:46:39.519Z,24.20
2018-09-09T14:49:10.900Z,24.30
2018-09-09T14:51:39.537Z,24.50
2018-09-09T14:54:09.636Z,24.40
2018-09-09T14:56:38.136Z,24.50
2018-09-09T14:59:07.415Z,24.90
2018-09-09T15:01:35.812Z,24.80
2018-09-09T15:04:04.411Z,25.40
2018-09-09T15:06:33.849Z,26.30
2018-09-09T15:09:03.193Z,28.30
2018-09-09T15:11:31.661Z,28.30
2018-09-09T15:14:00.023Z,29.00
2018-09-09T15:16:28.543Z,29.50
2018-09-09T15:18:56.917Z,28.90
2018-09-09T15:21:25.221Z,29.50
2018-09-09T15:23:53.586Z,29.50
2018-09-09T15:26:21.923Z,28.90
2018-09-09T15:28:50.421Z,28.30
2018-09-09T15:31:18.748Z,28.60
2018-09-09T15:33:47.098Z,28.90
2018-09-09T15:36:15.467Z,29.00
2018-09-09T15:38:44.150Z,29.20
2018-09-09T15:41:12.472Z,29.10
2018-09-09T15:43:40.915Z,29.00
2018-09-09T15:46:09.289Z,29.50
2018-09-09T15:48:37.745Z,29.40
2018-09-09T15:51:06.127Z,29.40
2018-09-09T15:53:34.469Z,29.50
2018-09-09T15:56:02.895Z,29.30
2018-09-09T15:58:31.509Z,29.20
2018-09-09T16:00:59.930Z,29.40
2018-09-09T16:03:28.333Z,29.50
2018-09-09T16:05:56.797Z,29.50
2018-09-09T16:08:26.083Z,28.80
2018-09-09T16:10:54.418Z,28.70
2018-09-09T16:13:22.777Z,28.20
2018-09-09T16:15:51.149Z,28.10
2018-09-09T16:18:19.511Z,27.90
2018-09-09T16:20:48.649Z,27.30
2018-09-09T16:23:17.050Z,27.30
2018-09-09T16:25:45.385Z,27.10
2018-09-09T16:28:13.889Z,27.00
2018-09-09T16:30:42.410Z,26.50
2018-09-09T16:33:10.761Z,26.30
2018-09-09T16:35:39.141Z,26.30
2018-09-09T16:38:07.487Z,26.40
2018-09-09T16:40:35.839Z,26.40
2018-09-09T16:43:05.055Z,26.00
2018-09-09T16:45:34.460Z,25.70
2018-09-09T16:48:02.901Z,25.70
2018-09-09T16:50:31.281Z,25.50
2018-09-09T16:52:59.637Z,25.40
2018-09-09T16:55:28.013Z,25.50
2018-09-09T16:57:56.430Z,25.70
2018-09-09T17:00:24.773Z,26.00
2018-09-09T17:02:53.137Z,26.10
2018-09-09T17:05:21.487Z,26.00
2018-09-09T17:07:50.635Z,25.70
2018-09-09T17:10:19.544Z,25.40
2018-09-09T17:12:48.681Z,25.10
2018-09-09T17:15:17.097Z,24.90
2018-09-09T17:17:45.413Z,24.60
2018-09-09T17:20:14.561Z,24.00
2018-09-09T17:22:42.905Z,24.00
2018-09-09T17:25:12.580Z,23.50
2018-09-09T17:27:40.974Z,23.50
2018-09-09T17:30:10.131Z,23.00
2018-09-09T17:32:38.479Z,23.00
2018-09-09T17:35:07.768Z,22.80
2018-09-09T17:37:36.891Z,22.40
2018-09-09T17:40:05.546Z,22.40
2018-09-09T17:42:34.677Z,22.10
2018-09-09T17:45:03.170Z,22.10
2018-09-09T17:47:31.605Z,22.00
2018-09-09T17:50:00.736Z,21.70
2018-09-09T17:52:29.168Z,21.60
2018-09-09T17:54:57.543Z,21.50
2018-09-09T17:57:25.880Z,21.40
2018-09-09T17:59:54.246Z,21.20
2018-09-09T18:02:22.601Z,21.10
2018-09-09T18:04:51.025Z,21.00
2018-09-09T18:07:19.372Z,20.90
2018-09-09T18:09:47.960Z,20.80
2018-09-09T18:12:16.374Z,20.70
2018-09-09T18:14:44.940Z,20.60
2018-09-09T18:17:13.494Z,20.50
2018-09-09T18:19:41.852Z,20.40
2018-09-09T18:22:10.183Z,20.40
2018-09-09T18:24:38.521Z,20.30
2018-09-09T18:27:07.666Z,20.10
2018-09-09T18:29:36.133Z,20.10
2018-09-09T18:32:04.374Z,20.00
2018-09-09T18:34:32.743Z,20.00
2018-09-09T18:37:01.302Z,19.90
2018-09-09T18:39:29.652Z,19.80
2018-09-09T18:41:58.214Z,19.80
2018-09-09T18:44:26.572Z,19.70
2018-09-09T18:46:54.994Z,19.70
2018-09-09T18:49:23.497Z,19.70
2018-09-09T18:51:52.059Z,19.60
2018-09-09T18:54:20.510Z,19.60
2018-09-09T18:56:49.020Z,19.50
2018-09-09T18:59:17.501Z,19.50
2018-09-09T19:01:46.711Z,19.30
2018-09-09T19:04:15.220Z,19.30
2018-09-09T19:06:43.732Z,19.30
2018-09-09T19:09:12.122Z,19.20
2018-09-09T19:11:40.498Z,19.20
2018-09-09T19:14:09.680Z,19.10
2018-09-09T19:16:38.102Z,19.10
2018-09-09T19:19:07.364Z,19.10
2018-09-09T19:21:35.875Z,19.00
2018-09-09T19:24:04.262Z,19.00
2018-09-09T19:26:32.670Z,19.00
2018-09-09T19:29:01.235Z,18.90
2018-09-09T19:31:29.630Z,18.90
2018-09-09T19:33:58.538Z,18.90
2018-09-09T19:36:27.655Z,18.80
2018-09-09T19:38:56.274Z,18.80
2018-09-09T19:41:24.778Z,18.80
2018-09-09T19:43:53.401Z,18.80
2018-09-09T19:46:21.896Z,18.80
2018-09-09T19:48:50.299Z,18.80
2018-09-09T19:51:20.593Z,18.80
2018-09-09T19:53:49.039Z,18.70
2018-09-09T19:56:17.368Z,18.80
2018-09-09T19:58:46.504Z,18.70
2018-09-09T20:01:14.896Z,18.70
2018-09-09T20:03:43.224Z,18.70
2018-09-09T20:06:12.356Z,18.70
2018-09-09T20:08:41.438Z,18.70
2018-09-09T20:11:09.955Z,18.70
2018-09-09T20:13:38.297Z,18.60
2018-09-09T20:16:06.624Z,18.60
2018-09-09T20:18:35.204Z,18.50
2018-09-09T20:21:03.682Z,18.50
2018-09-09T20:23:32.122Z,18.40
2018-09-09T20:26:00.661Z,18.30
2018-09-09T20:28:28.979Z,18.20
2018-09-09T20:30:57.375Z,18.20
2018-09-09T20:33:25.712Z,18.20
2018-09-09T20:35:54.118Z,18.20
2018-09-09T20:38:23.199Z,18.20
2018-09-09T20:40:51.565Z,18.10
2018-09-09T20:43:20.855Z,18.10
2018-09-09T20:45:51.277Z,18.10
2018-09-09T20:48:21.018Z,18.10
2018-09-09T20:50:49.407Z,18.10
2018-09-09T20:53:17.866Z,18.10
2018-09-09T20:55:47.138Z,18.10
2018-09-09T20:58:15.480Z,18.00
2018-09-09T21:00:43.897Z,18.00
2018-09-09T21:03:12.239Z,18.00
2018-09-09T21:05:40.664Z,18.00
2018-09-09T21:08:09.108Z,17.90
2018-09-09T21:10:37.456Z,17.90
2018-09-09T21:13:06.570Z,17.90
2018-09-09T21:15:34.899Z,17.90
2018-09-09T21:18:03.263Z,17.90
2018-09-09T21:20:31.585Z,17.80
2018-09-09T21:23:00.743Z,17.80
2018-09-09T21:25:29.079Z,17.80
2018-09-09T21:27:57.685Z,17.80
2018-09-09T21:30:26.088Z,17.70
2018-09-09T21:32:54.459Z,17.80
2018-09-09T21:35:22.808Z,17.70
2018-09-09T21:37:51.703Z,17.70
2018-09-09T21:40:20.025Z,17.70
2018-09-09T21:42:48.438Z,17.70
2018-09-09T21:45:16.837Z,17.70
2018-09-09T21:47:45.396Z,17.60
2018-09-09T21:50:13.712Z,17.60
2018-09-09T21:52:42.096Z,17.60
2018-09-09T21:55:10.560Z,17.60
2018-09-09T21:57:40.814Z,17.60
2018-09-09T22:00:09.136Z,17.50
2018-09-09T22:02:38.432Z,17.50
2018-09-09T22:05:07.136Z,17.50
2018-09-09T22:07:35.676Z,17.50
2018-09-09T22:10:04.039Z,17.40
2018-09-09T22:12:32.406Z,17.40
2018-09-09T22:15:00.756Z,17.40
2018-09-09T22:17:29.255Z,17.40
2018-09-09T22:19:58.781Z,17.40
2018-09-09T22:22:27.125Z,17.30
2018-09-09T22:24:56.329Z,17.30
2018-09-09T22:27:24.667Z,17.30
2018-09-09T22:29:53.055Z,17.30
2018-09-09T22:32:21.389Z,17.30
2018-09-09T22:34:49.754Z,17.30
2018-09-09T22:37:18.323Z,17.20
2018-09-09T22:39:47.443Z,17.20
2018-09-09T22:42:15.766Z,17.10
2018-09-09T22:44:44.135Z,17.10
2018-09-09T22:47:12.459Z,17.10
2018-09-09T22:49:40.822Z,17.10
2018-09-09T22:52:09.931Z,17.10
2018-09-09T22:54:38.281Z,17.10
2018-09-09T22:57:07.401Z,17.10
2018-09-09T22:59:36.565Z,17.00
2018-09-09T23:02:04.892Z,17.00
2018-09-09T23:04:33.273Z,17.00
2018-09-09T23:07:01.603Z,17.00
2018-09-09T23:09:29.934Z,17.00
2018-09-09T23:11:58.279Z,17.00
2018-09-09T23:14:27.603Z,16.90
2018-09-09T23:16:56.745Z,16.90
2018-09-09T23:19:25.309Z,16.90
2018-09-09T23:21:53.617Z,16.90
2018-09-09T23:24:21.970Z,16.80
2018-09-09T23:26:50.302Z,16.80
2018-09-09T23:29:19.469Z,16.80
2018-09-09T23:31:47.832Z,16.80
2018-09-09T23:34:16.162Z,16.90
2018-09-09T23:36:44.514Z,16.90
2018-09-09T23:39:12.876Z,16.90
2018-09-09T23:41:41.225Z,16.90
2018-09-09T23:44:09.587Z,16.90
2018-09-09T23:46:37.959Z,17.00
2018-09-09T23:49:06.356Z,17.00
2018-09-09T23:51:34.715Z,17.00
2018-09-09T23:54:03.808Z,17.00
2018-09-09T23:56:32.925Z,17.10
2018-09-09T23:59:01.264Z,17.10
